createdAt,value
2023-04-23T00:01:19.517Z,100620.21
2023-04-23T00:03:48.970Z,100621.68
2023-04-23T00:06:18.165Z,100624.25
2023-04-23T00:08:46.455Z,100627.76
2023-04-23T00:11:15.391Z,100632.98
2023-04-23T00:13:44.598Z,100632.46
2023-04-23T00:16:14.467Z,100636.60
2023-04-23T00:18:42.963Z,100637.77
2023-04-23T00:21:11.489Z,100642.68
2023-04-23T00:23:40.404Z,100644.56
2023-04-23T00:26:09.053Z,100645.57
2023-04-23T00:28:37.499Z,100645.33
2023-04-23T00:31:07.883Z,100644.00
2023-04-23T00:33:37.051Z,100644.06
2023-04-23T00:36:06.328Z,100645.07
2023-04-23T00:38:38.705Z,100645.38
2023-04-23T00:41:07.420Z,100646.06
2023-04-23T00:43:38.272Z,100647.66
2023-04-23T00:46:06.862Z,100648.05
2023-04-23T00:48:36.108Z,100648.81
2023-04-23T00:51:05.972Z,100650.29
2023-04-23T00:53:34.423Z,100645.42
2023-04-23T00:56:04.352Z,100644.85
2023-04-23T00:58:33.499Z,100647.26
2023-04-23T01:01:04.679Z,100647.45
2023-04-23T01:03:36.609Z,100654.85
2023-04-23T01:06:06.021Z,100650.52
2023-04-23T01:08:34.980Z,100656.35
2023-04-23T01:11:03.914Z,100657.90
2023-04-23T01:13:32.704Z,100661.36
2023-04-23T01:16:04.003Z,100659.70
2023-04-23T01:18:32.765Z,100658.95
2023-04-23T01:21:02.250Z,100654.86
2023-04-23T01:23:31.194Z,100653.70
2023-04-23T01:26:00.884Z,100652.70
2023-04-23T01:28:30.429Z,100654.96
2023-04-23T01:30:58.955Z,100656.78
2023-04-23T01:33:27.797Z,100650.95
2023-04-23T01:35:57.371Z,100648.67
2023-04-23T01:38:26.086Z,100647.48
2023-04-23T01:40:54.553Z,100646.61
2023-04-23T01:43:23.434Z,100648.63
2023-04-23T01:45:53.093Z,100650.95
2023-04-23T01:48:21.889Z,100649.29
2023-04-23T01:50:51.646Z,100649.91
2023-04-23T01:53:20.094Z,100643.79
2023-04-23T01:55:48.496Z,100645.02
2023-04-23T01:58:18.285Z,100649.52
2023-04-23T02:00:47.674Z,100647.08
2023-04-23T02:03:17.395Z,100652.38
2023-04-23T02:05:47.458Z,100651.29
2023-04-23T02:08:16.499Z,100651.61
2023-04-23T02:10:44.912Z,100652.38
2023-04-23T02:13:14.005Z,100653.60
2023-04-23T02:15:43.460Z,100648.86
2023-04-23T02:18:12.466Z,100651.94
2023-04-23T02:20:41.901Z,100654.85
2023-04-23T02:23:10.324Z,100652.23
2023-04-23T02:25:39.553Z,100654.27
2023-04-23T02:28:08.523Z,100651.79
2023-04-23T02:30:38.192Z,100652.36
2023-04-23T02:33:07.707Z,100651.84
2023-04-23T02:35:36.965Z,100653.80
2023-04-23T02:38:05.429Z,100658.30
2023-04-23T02:40:34.327Z,100654.16
2023-04-23T02:43:02.809Z,100660.95
2023-04-23T02:45:31.595Z,100669.58
2023-04-23T02:48:01.053Z,100669.59
2023-04-23T02:50:29.684Z,100673.88
2023-04-23T02:52:58.257Z,100676.12
2023-04-23T02:55:32.271Z,100678.02
2023-04-23T02:58:01.243Z,100678.89
2023-04-23T03:00:30.667Z,100681.44
2023-04-23T03:02:59.432Z,100679.90
2023-04-23T03:05:29.273Z,100685.45
2023-04-23T03:07:57.755Z,100688.04
2023-04-23T03:10:26.835Z,100686.36
2023-04-23T03:12:56.619Z,100690.83
2023-04-23T03:15:27.675Z,100688.91
2023-04-23T03:17:56.749Z,100694.02
2023-04-23T03:20:25.309Z,100697.09
2023-04-23T03:22:54.205Z,100697.23
2023-04-23T03:25:24.590Z,100703.02
2023-04-23T03:27:53.939Z,100707.71
2023-04-23T03:30:22.705Z,100709.91
2023-04-23T03:32:55.220Z,100711.16
2023-04-23T03:35:24.600Z,100710.23
2023-04-23T03:37:53.851Z,100708.45
2023-04-23T03:40:23.666Z,100714.56
2023-04-23T03:42:58.138Z,100718.76
2023-04-23T03:45:36.535Z,100726.70
2023-04-23T03:48:06.141Z,100728.63
2023-04-23T03:50:40.786Z,100725.05
2023-04-23T03:53:27.254Z,100725.27
2023-04-23T03:56:14.459Z,100725.44
2023-04-23T03:58:49.684Z,100733.39
2023-04-23T04:01:18.536Z,100731.60
2023-04-23T04:03:47.377Z,100730.79
2023-04-23T04:06:17.485Z,100734.70
2023-04-23T04:08:46.541Z,100735.25
2023-04-23T04:11:14.884Z,100741.20
2023-04-23T04:13:43.355Z,100748.88
2023-04-23T04:16:11.824Z,100751.04
2023-04-23T04:18:40.300Z,100753.36
2023-04-23T04:21:08.741Z,100754.46
2023-04-23T04:23:37.480Z,100756.93
2023-04-23T04:26:05.863Z,100758.08
2023-04-23T04:28:36.583Z,100760.12
2023-04-23T04:31:05.824Z,100764.77
2023-04-23T04:33:35.934Z,100768.00
2023-04-23T04:36:05.427Z,100770.95
2023-04-23T04:38:33.986Z,100774.31
2023-04-23T04:41:02.493Z,100777.89
2023-04-23T04:43:32.691Z,100776.31
2023-04-23T04:46:01.447Z,100773.98
2023-04-23T04:48:30.111Z,100774.09
2023-04-23T04:50:58.555Z,100773.21
2023-04-23T04:53:27.170Z,100781.58
2023-04-23T04:55:55.709Z,100781.33
2023-04-23T04:58:24.106Z,100780.20
2023-04-23T05:00:53.300Z,100782.75
2023-04-23T05:03:22.531Z,100781.72
2023-04-23T05:05:51.616Z,100783.80
2023-04-23T05:08:22.017Z,100781.79
2023-04-23T05:10:54.481Z,100784.91
2023-04-23T05:13:23.495Z,100785.73
2023-04-23T05:15:51.956Z,100789.79
2023-04-23T05:18:20.898Z,100788.48
2023-04-23T05:20:49.339Z,100785.75
2023-04-23T05:23:18.963Z,100783.48
2023-04-23T05:25:47.444Z,100790.36
2023-04-23T05:28:16.213Z,100793.84
2023-04-23T05:30:44.756Z,100796.73
2023-04-23T05:33:13.336Z,100797.68
2023-04-23T05:35:41.984Z,100797.46
2023-04-23T05:38:10.742Z,100797.79
2023-04-23T05:40:39.529Z,100803.37
2023-04-23T05:43:08.046Z,100806.53
2023-04-23T05:45:37.184Z,100812.25
2023-04-23T05:48:05.696Z,100815.57
2023-04-23T05:50:34.634Z,100827.67
2023-04-23T05:53:03.183Z,100828.40
2023-04-23T05:55:32.669Z,100830.50
2023-04-23T05:58:01.180Z,100835.22
2023-04-23T06:00:29.715Z,100830.23
2023-04-23T06:03:00.776Z,100835.17
2023-04-23T06:05:30.255Z,100836.52
2023-04-23T06:07:58.709Z,100838.92
2023-04-23T06:10:27.282Z,100838.21
2023-04-23T06:12:55.992Z,100842.47
2023-04-23T06:15:27.381Z,100841.12
2023-04-23T06:17:56.069Z,100844.03
2023-04-23T06:20:25.674Z,100846.70
2023-04-23T06:22:54.024Z,100843.78
2023-04-23T06:25:22.588Z,100847.52
2023-04-23T06:27:51.305Z,100848.27
2023-04-23T06:30:22.310Z,100850.17
2023-04-23T06:32:51.582Z,100856.59
2023-04-23T06:35:20.112Z,100861.46
2023-04-23T06:37:48.445Z,100865.15
2023-04-23T06:40:17.239Z,100867.32
2023-04-23T06:42:46.073Z,100870.77
2023-04-23T06:45:20.351Z,100865.59
2023-04-23T06:47:50.108Z,100861.71
2023-04-23T06:50:18.954Z,100862.23
2023-04-23T06:52:47.318Z,100868.02
2023-04-23T06:55:15.874Z,100872.84
2023-04-23T06:57:44.323Z,100871.14
2023-04-23T07:00:13.797Z,100871.42
2023-04-23T07:02:44.107Z,100872.18
2023-04-23T07:05:12.571Z,100875.27
2023-04-23T07:07:43.610Z,100874.34
2023-04-23T07:10:14.332Z,100875.48
2023-04-23T07:12:44.148Z,100871.15
2023-04-23T07:15:12.643Z,100872.89
2023-04-23T07:17:41.716Z,100875.85
2023-04-23T07:20:10.368Z,100875.67
2023-04-23T07:22:39.062Z,100874.80
2023-04-23T07:25:08.911Z,100876.88
2023-04-23T07:27:38.069Z,100880.11
2023-04-23T07:30:08.368Z,100879.62
2023-04-23T07:32:37.221Z,100878.46
2023-04-23T07:35:06.772Z,100879.89
2023-04-23T07:37:36.834Z,100878.93
2023-04-23T07:40:08.162Z,100876.29
2023-04-23T07:42:36.865Z,100880.93
2023-04-23T07:45:06.215Z,100880.73
2023-04-23T07:47:35.028Z,100877.33
2023-04-23T07:50:03.970Z,100878.32
2023-04-23T07:52:32.815Z,100881.88
2023-04-23T07:55:01.306Z,100880.37
2023-04-23T07:57:30.060Z,100878.52
2023-04-23T07:59:58.479Z,100877.11
2023-04-23T08:02:27.922Z,100879.73
2023-04-23T08:04:57.377Z,100881.86
2023-04-23T08:07:26.402Z,100882.92
2023-04-23T08:09:54.939Z,100882.23
2023-04-23T08:12:23.447Z,100885.04
2023-04-23T08:14:51.861Z,100886.50
2023-04-23T08:17:21.682Z,100884.89
2023-04-23T08:19:50.750Z,100881.45
2023-04-23T08:22:20.298Z,100879.08
2023-04-23T08:24:48.724Z,100874.96
2023-04-23T08:27:17.580Z,100873.20
2023-04-23T08:29:45.877Z,100873.06
2023-04-23T08:32:14.478Z,100871.20
2023-04-23T08:34:43.027Z,100870.92
2023-04-23T08:37:19.662Z,100864.64
2023-04-23T08:39:55.895Z,100869.52
2023-04-23T08:42:45.273Z,100867.20
2023-04-23T08:45:14.138Z,100865.73
2023-04-23T08:47:45.758Z,100866.64
2023-04-23T08:50:20.089Z,100864.76
2023-04-23T08:52:56.663Z,100861.31
2023-04-23T08:55:25.579Z,100865.08
2023-04-23T08:57:53.998Z,100863.21
2023-04-23T09:00:24.250Z,100856.27
2023-04-23T09:02:52.851Z,100852.29
2023-04-23T09:05:21.820Z,100851.27
2023-04-23T09:07:50.247Z,100851.20
2023-04-23T09:10:18.891Z,100850.38
2023-04-23T09:12:48.446Z,100846.42
2023-04-23T09:15:16.854Z,100848.77
2023-04-23T09:17:46.428Z,100839.27
2023-04-23T09:20:15.534Z,100832.38
2023-04-23T09:22:47.616Z,100827.82
2023-04-23T09:25:18.256Z,100821.27
2023-04-23T09:27:47.620Z,100820.95
2023-04-23T09:30:16.549Z,100823.38
2023-04-23T09:32:46.301Z,100823.54
2023-04-23T09:35:16.305Z,100820.44
2023-04-23T09:37:49.153Z,100819.00
2023-04-23T09:40:23.076Z,100815.11
2023-04-23T09:42:56.057Z,100826.06
2023-04-23T09:45:27.790Z,100824.58
2023-04-23T09:47:58.222Z,100824.38
2023-04-23T09:50:37.182Z,100819.02
2023-04-23T09:53:06.774Z,100815.17
2023-04-23T09:55:39.606Z,100809.95
2023-04-23T09:58:13.037Z,100806.98
2023-04-23T10:00:42.093Z,100804.09
2023-04-23T10:03:12.436Z,100808.77
2023-04-23T10:08:16.323Z,100803.93
2023-04-23T10:10:57.599Z,100801.07
2023-04-23T10:13:35.948Z,100797.73
2023-04-23T10:16:18.241Z,100794.83
2023-04-23T10:18:52.307Z,100796.14
2023-04-23T10:21:21.353Z,100796.88
2023-04-23T10:23:50.672Z,100792.05
2023-04-23T10:26:19.779Z,100795.70
2023-04-23T10:28:49.308Z,100792.48
2023-04-23T10:31:18.895Z,100790.65
2023-04-23T10:33:59.229Z,100797.95
2023-04-23T10:36:29.279Z,100796.25
2023-04-23T10:39:01.303Z,100793.36
2023-04-23T10:41:34.558Z,100786.33
2023-04-23T10:44:05.067Z,100789.19
2023-04-23T10:46:35.784Z,100787.84
2023-04-23T10:49:16.760Z,100785.27
2023-04-23T10:52:17.942Z,100784.19
2023-04-23T10:54:37.265Z,100780.30
2023-04-23T10:57:06.919Z,100782.39
2023-04-23T10:59:38.822Z,100777.88
2023-04-23T11:02:09.382Z,100776.36
2023-04-23T11:04:43.417Z,100774.27
2023-04-23T11:07:13.098Z,100773.66
2023-04-23T11:09:49.069Z,100771.77
2023-04-23T11:12:21.535Z,100772.18
2023-04-23T11:14:50.538Z,100775.42
2023-04-23T11:17:22.177Z,100770.27
2023-04-23T11:20:21.003Z,100769.59
2023-04-23T11:22:50.526Z,100769.19
2023-04-23T11:25:22.933Z,100767.98
2023-04-23T11:27:52.535Z,100767.63
2023-04-23T11:30:22.634Z,100763.69
2023-04-23T11:32:52.819Z,100763.81
2023-04-23T11:35:23.210Z,100766.52
2023-04-23T11:37:52.044Z,100766.84
2023-04-23T11:40:21.629Z,100764.42
2023-04-23T11:42:51.268Z,100764.52
2023-04-23T11:45:21.556Z,100761.92
2023-04-23T11:47:56.181Z,100760.41
2023-04-23T11:50:27.614Z,100753.29
2023-04-23T11:52:56.617Z,100749.48
2023-04-23T11:55:25.481Z,100752.41
2023-04-23T11:57:54.054Z,100753.27
2023-04-23T12:00:24.834Z,100750.32
2023-04-23T12:02:58.225Z,100756.52
2023-04-23T12:05:43.800Z,100762.49
2023-04-23T12:08:17.214Z,100768.17
2023-04-23T12:10:55.931Z,100772.45
2023-04-23T12:13:28.321Z,100769.91
2023-04-23T12:16:04.542Z,100776.16
2023-04-23T12:18:41.787Z,100782.02
2023-04-23T12:21:13.825Z,100796.83
2023-04-23T12:23:45.317Z,100813.62
2023-04-23T12:26:15.760Z,100830.44
2023-04-23T12:28:53.377Z,100847.08
2023-04-23T12:31:25.788Z,100867.34
2023-04-23T12:34:04.903Z,100884.98
2023-04-23T12:36:35.189Z,100890.30
2023-04-23T12:39:32.176Z,100899.02
2023-04-23T12:42:06.911Z,100904.25
2023-04-23T12:44:37.126Z,100905.49
2023-04-23T12:47:09.300Z,100903.19
2023-04-23T12:49:39.895Z,100901.58
2023-04-23T12:52:09.065Z,100908.02
2023-04-23T12:54:41.454Z,100906.98
2023-04-23T12:57:17.836Z,100924.23
2023-04-23T12:59:47.629Z,100941.55
